sensor_id;sensor_type;location;lat;lon;timestamp;P1;durP1;ratioP1;P2;durP2;ratioP2
2558;SDS011;1289;53.488;10.006;2023-05-10T00:01:41;6.20;;;5.70;;
2558;SDS011;1289;53.488;10.006;2023-05-10T00:04:08;5.70;;;5.20;;
2558;SDS011;1289;53.488;10.006;2023-05-10T00:06:34;6.90;;;6.10;;
2558;SDS011;1289;53.488;10.006;2023-05-10T00:09:01;6.60;;;6.00;;
2558;SDS011;1289;53.488;10.006;2023-05-10T00:11:29;6.30;;;5.80;;
2558;SDS011;1289;53.488;10.006;2023-05-10T00:13:56;6.80;;;6.10;;
2558;SDS011;1289;53.488;10.006;2023-05-10T00:16:22;6.47;;;5.80;;
2558;SDS011;1289;53.488;10.006;2023-05-10T00:18:49;6.23;;;5.73;;
2558;SDS011;1289;53.488;10.006;2023-05-10T00:21:15;6.40;;;5.93;;
2558;SDS011;1289;53.488;10.006;2023-05-10T00:23:42;10.77;;;6.27;;
2558;SDS011;1289;53.488;10.006;2023-05-10T00:26:08;8.73;;;6.50;;
2558;SDS011;1289;53.488;10.006;2023-05-10T00:28:37;6.10;;;5.60;;
2558;SDS011;1289;53.488;10.006;2023-05-10T00:31:04;7.07;;;5.60;;
2558;SDS011;1289;53.488;10.006;2023-05-10T00:33:31;6.63;;;5.80;;
2558;SDS011;1289;53.488;10.006;2023-05-10T00:35:57;6.37;;;5.87;;
2558;SDS011;1289;53.488;10.006;2023-05-10T00:38:24;7.33;;;6.40;;
2558;SDS011;1289;53.488;10.006;2023-05-10T00:40:50;6.47;;;5.97;;
2558;SDS011;1289;53.488;10.006;2023-05-10T00:43:24;7.40;;;6.73;;
2558;SDS011;1289;53.488;10.006;2023-05-10T00:45:52;7.87;;;5.90;;
2558;SDS011;1289;53.488;10.006;2023-05-10T00:48:19;17.53;;;6.23;;
2558;SDS011;1289;53.488;10.006;2023-05-10T00:50:45;7.13;;;6.53;;
2558;SDS011;1289;53.488;10.006;2023-05-10T00:53:13;7.53;;;6.20;;
2558;SDS011;1289;53.488;10.006;2023-05-10T00:55:40;7.23;;;6.50;;
2558;SDS011;1289;53.488;10.006;2023-05-10T00:58:07;7.03;;;6.53;;
2558;SDS011;1289;53.488;10.006;2023-05-10T01:00:33;7.23;;;6.73;;
2558;SDS011;1289;53.488;10.006;2023-05-10T01:03:01;10.10;;;7.60;;
2558;SDS011;1289;53.488;10.006;2023-05-10T01:05:29;6.60;;;6.00;;
2558;SDS011;1289;53.488;10.006;2023-05-10T01:07:56;6.40;;;5.90;;
2558;SDS011;1289;53.488;10.006;2023-05-10T01:10:23;7.50;;;6.80;;
2558;SDS011;1289;53.488;10.006;2023-05-10T01:12:50;15.60;;;7.40;;
2558;SDS011;1289;53.488;10.006;2023-05-10T01:15:16;6.63;;;6.03;;
2558;SDS011;1289;53.488;10.006;2023-05-10T01:17:44;6.70;;;6.20;;
2558;SDS011;1289;53.488;10.006;2023-05-10T01:20:12;6.93;;;6.33;;
2558;SDS011;1289;53.488;10.006;2023-05-10T01:22:43;7.20;;;6.60;;
2558;SDS011;1289;53.488;10.006;2023-05-10T01:25:28;8.47;;;6.57;;
2558;SDS011;1289;53.488;10.006;2023-05-10T01:28:08;7.83;;;7.13;;
2558;SDS011;1289;53.488;10.006;2023-05-10T01:33:52;7.43;;;6.63;;
2558;SDS011;1289;53.488;10.006;2023-05-10T01:36:23;7.13;;;6.43;;
2558;SDS011;1289;53.488;10.006;2023-05-10T01:38:55;7.60;;;7.00;;
2558;SDS011;1289;53.488;10.006;2023-05-10T01:41:25;6.70;;;6.10;;
2558;SDS011;1289;53.488;10.006;2023-05-10T01:43:56;7.20;;;6.57;;
2558;SDS011;1289;53.488;10.006;2023-05-10T01:46:25;8.40;;;7.60;;
2558;SDS011;1289;53.488;10.006;2023-05-10T01:48:57;7.67;;;6.13;;
2558;SDS011;1289;53.488;10.006;2023-05-10T01:51:27;8.10;;;7.30;;
2558;SDS011;1289;53.488;10.006;2023-05-10T01:53:59;7.33;;;6.70;;
2558;SDS011;1289;53.488;10.006;2023-05-10T01:56:29;8.70;;;6.90;;
2558;SDS011;1289;53.488;10.006;2023-05-10T01:58:57;6.87;;;5.80;;
2558;SDS011;1289;53.488;10.006;2023-05-10T02:01:25;7.13;;;6.27;;
2558;SDS011;1289;53.488;10.006;2023-05-10T02:03:53;7.20;;;6.20;;
2558;SDS011;1289;53.488;10.006;2023-05-10T02:06:21;7.27;;;6.67;;
2558;SDS011;1289;53.488;10.006;2023-05-10T02:08:48;7.30;;;6.60;;
2558;SDS011;1289;53.488;10.006;2023-05-10T02:11:15;8.83;;;7.17;;
2558;SDS011;1289;53.488;10.006;2023-05-10T02:13:44;6.90;;;6.20;;
2558;SDS011;1289;53.488;10.006;2023-05-10T02:16:12;7.07;;;6.43;;
2558;SDS011;1289;53.488;10.006;2023-05-10T02:18:39;7.33;;;6.73;;
2558;SDS011;1289;53.488;10.006;2023-05-10T02:21:07;8.90;;;6.70;;
2558;SDS011;1289;53.488;10.006;2023-05-10T02:23:38;7.60;;;6.90;;
2558;SDS011;1289;53.488;10.006;2023-05-10T02:26:06;7.80;;;7.10;;
2558;SDS011;1289;53.488;10.006;2023-05-10T02:28:34;7.03;;;6.37;;
2558;SDS011;1289;53.488;10.006;2023-05-10T02:31:02;8.57;;;6.77;;
2558;SDS011;1289;53.488;10.006;2023-05-10T02:33:29;8.60;;;7.70;;
2558;SDS011;1289;53.488;10.006;2023-05-10T02:35:58;9.93;;;7.17;;
2558;SDS011;1289;53.488;10.006;2023-05-10T02:38:24;7.17;;;6.50;;
2558;SDS011;1289;53.488;10.006;2023-05-10T02:40:53;7.53;;;6.73;;
2558;SDS011;1289;53.488;10.006;2023-05-10T02:43:21;7.03;;;6.27;;
2558;SDS011;1289;53.488;10.006;2023-05-10T02:45:49;7.53;;;6.77;;
2558;SDS011;1289;53.488;10.006;2023-05-10T02:48:15;6.40;;;5.90;;
2558;SDS011;1289;53.488;10.006;2023-05-10T02:50:43;7.80;;;7.00;;
2558;SDS011;1289;53.488;10.006;2023-05-10T02:53:11;8.33;;;7.07;;
2558;SDS011;1289;53.488;10.006;2023-05-10T02:55:41;7.17;;;6.40;;
2558;SDS011;1289;53.488;10.006;2023-05-10T02:58:14;7.27;;;6.57;;
2558;SDS011;1289;53.488;10.006;2023-05-10T03:00:40;7.77;;;7.07;;
2558;SDS011;1289;53.488;10.006;2023-05-10T03:03:07;8.27;;;7.57;;
2558;SDS011;1289;53.488;10.006;2023-05-10T03:05:34;6.93;;;6.33;;
2558;SDS011;1289;53.488;10.006;2023-05-10T03:08:02;13.80;;;7.60;;
2558;SDS011;1289;53.488;10.006;2023-05-10T03:10:30;9.00;;;7.10;;
2558;SDS011;1289;53.488;10.006;2023-05-10T03:13:01;8.03;;;7.30;;
2558;SDS011;1289;53.488;10.006;2023-05-10T03:15:39;9.20;;;7.23;;
2558;SDS011;1289;53.488;10.006;2023-05-10T03:18:10;7.87;;;7.07;;
2558;SDS011;1289;53.488;10.006;2023-05-10T03:20:42;8.20;;;7.40;;
2558;SDS011;1289;53.488;10.006;2023-05-10T03:23:12;8.53;;;7.67;;
2558;SDS011;1289;53.488;10.006;2023-05-10T03:25:39;7.70;;;7.00;;
2558;SDS011;1289;53.488;10.006;2023-05-10T03:28:09;7.40;;;6.40;;
2558;SDS011;1289;53.488;10.006;2023-05-10T03:30:37;7.47;;;6.87;;
2558;SDS011;1289;53.488;10.006;2023-05-10T03:33:06;7.10;;;6.33;;
2558;SDS011;1289;53.488;10.006;2023-05-10T03:35:36;8.87;;;7.97;;
2558;SDS011;1289;53.488;10.006;2023-05-10T03:38:03;7.93;;;7.17;;
2558;SDS011;1289;53.488;10.006;2023-05-10T03:40:29;8.97;;;8.10;;
2558;SDS011;1289;53.488;10.006;2023-05-10T03:42:58;21.93;;;7.13;;
2558;SDS011;1289;53.488;10.006;2023-05-10T03:45:25;10.17;;;7.33;;
2558;SDS011;1289;53.488;10.006;2023-05-10T03:47:53;7.83;;;6.50;;
2558;SDS011;1289;53.488;10.006;2023-05-10T03:50:20;11.53;;;6.63;;
2558;SDS011;1289;53.488;10.006;2023-05-10T03:52:47;7.70;;;7.00;;
2558;SDS011;1289;53.488;10.006;2023-05-10T03:55:13;7.57;;;6.87;;
2558;SDS011;1289;53.488;10.006;2023-05-10T03:57:40;7.70;;;6.70;;
2558;SDS011;1289;53.488;10.006;2023-05-10T04:00:07;8.47;;;7.27;;
2558;SDS011;1289;53.488;10.006;2023-05-10T04:02:40;7.13;;;6.63;;
2558;SDS011;1289;53.488;10.006;2023-05-10T04:05:12;8.37;;;7.57;;
2558;SDS011;1289;53.488;10.006;2023-05-10T04:07:38;7.87;;;7.10;;
2558;SDS011;1289;53.488;10.006;2023-05-10T04:10:05;6.83;;;5.80;;
2558;SDS011;1289;53.488;10.006;2023-05-10T04:12:32;7.17;;;6.57;;
2558;SDS011;1289;53.488;10.006;2023-05-10T04:14:59;7.93;;;6.63;;
2558;SDS011;1289;53.488;10.006;2023-05-10T04:17:26;10.40;;;7.27;;
2558;SDS011;1289;53.488;10.006;2023-05-10T04:19:52;7.43;;;6.73;;
2558;SDS011;1289;53.488;10.006;2023-05-10T04:22:21;7.83;;;7.07;;
2558;SDS011;1289;53.488;10.006;2023-05-10T04:24:47;8.07;;;6.87;;
2558;SDS011;1289;53.488;10.006;2023-05-10T04:27:14;6.90;;;6.27;;
2558;SDS011;1289;53.488;10.006;2023-05-10T04:29:40;6.80;;;6.30;;
2558;SDS011;1289;53.488;10.006;2023-05-10T04:32:07;7.60;;;7.00;;
2558;SDS011;1289;53.488;10.006;2023-05-10T04:34:35;10.33;;;7.50;;
2558;SDS011;1289;53.488;10.006;2023-05-10T04:37:02;7.37;;;6.67;;
2558;SDS011;1289;53.488;10.006;2023-05-10T04:39:30;7.60;;;7.00;;
2558;SDS011;1289;53.488;10.006;2023-05-10T04:41:57;7.90;;;7.10;;
2558;SDS011;1289;53.488;10.006;2023-05-10T04:44:23;7.67;;;6.97;;
2558;SDS011;1289;53.488;10.006;2023-05-10T04:46:50;7.70;;;6.90;;
2558;SDS011;1289;53.488;10.006;2023-05-10T04:49:16;7.20;;;6.70;;
2558;SDS011;1289;53.488;10.006;2023-05-10T04:51:44;8.53;;;7.00;;
2558;SDS011;1289;53.488;10.006;2023-05-10T04:54:10;7.40;;;6.80;;
2558;SDS011;1289;53.488;10.006;2023-05-10T04:56:38;7.73;;;6.60;;
2558;SDS011;1289;53.488;10.006;2023-05-10T04:59:05;7.70;;;7.03;;
2558;SDS011;1289;53.488;10.006;2023-05-10T05:01:32;7.00;;;6.40;;
2558;SDS011;1289;53.488;10.006;2023-05-10T05:03:58;7.50;;;6.83;;
2558;SDS011;1289;53.488;10.006;2023-05-10T05:06:25;7.40;;;6.70;;
2558;SDS011;1289;53.488;10.006;2023-05-10T05:08:52;8.73;;;6.60;;
2558;SDS011;1289;53.488;10.006;2023-05-10T05:11:19;7.53;;;6.80;;
2558;SDS011;1289;53.488;10.006;2023-05-10T05:13:47;9.90;;;7.70;;
2558;SDS011;1289;53.488;10.006;2023-05-10T05:16:14;7.40;;;6.90;;
2558;SDS011;1289;53.488;10.006;2023-05-10T05:18:40;9.17;;;7.00;;
2558;SDS011;1289;53.488;10.006;2023-05-10T05:21:13;7.00;;;6.40;;
2558;SDS011;1289;53.488;10.006;2023-05-10T05:23:40;10.70;;;6.80;;
2558;SDS011;1289;53.488;10.006;2023-05-10T05:26:06;7.90;;;6.87;;
2558;SDS011;1289;53.488;10.006;2023-05-10T05:28:33;7.90;;;6.47;;
2558;SDS011;1289;53.488;10.006;2023-05-10T05:31:03;7.60;;;6.70;;
2558;SDS011;1289;53.488;10.006;2023-05-10T05:33:30;9.60;;;7.00;;
2558;SDS011;1289;53.488;10.006;2023-05-10T05:35:57;7.13;;;6.53;;
2558;SDS011;1289;53.488;10.006;2023-05-10T05:38:26;8.40;;;6.93;;
2558;SDS011;1289;53.488;10.006;2023-05-10T05:40:53;9.70;;;7.40;;
2558;SDS011;1289;53.488;10.006;2023-05-10T05:43:19;7.70;;;7.10;;
2558;SDS011;1289;53.488;10.006;2023-05-10T05:45:46;7.53;;;6.90;;
2558;SDS011;1289;53.488;10.006;2023-05-10T05:48:14;7.20;;;6.60;;
2558;SDS011;1289;53.488;10.006;2023-05-10T05:50:40;7.17;;;6.47;;
2558;SDS011;1289;53.488;10.006;2023-05-10T05:53:07;8.83;;;6.90;;
2558;SDS011;1289;53.488;10.006;2023-05-10T05:55:34;7.57;;;6.87;;
2558;SDS011;1289;53.488;10.006;2023-05-10T05:58:01;9.23;;;7.43;;
2558;SDS011;1289;53.488;10.006;2023-05-10T06:00:27;7.30;;;6.67;;
2558;SDS011;1289;53.488;10.006;2023-05-10T06:02:54;7.37;;;6.67;;
2558;SDS011;1289;53.488;10.006;2023-05-10T06:05:22;7.13;;;6.63;;
2558;SDS011;1289;53.488;10.006;2023-05-10T06:07:48;7.17;;;6.60;;
2558;SDS011;1289;53.488;10.006;2023-05-10T06:10:15;9.27;;;7.47;;
2558;SDS011;1289;53.488;10.006;2023-05-10T06:12:42;9.20;;;8.10;;
2558;SDS011;1289;53.488;10.006;2023-05-10T06:15:09;7.10;;;6.50;;
2558;SDS011;1289;53.488;10.006;2023-05-10T06:17:36;7.67;;;6.37;;
2558;SDS011;1289;53.488;10.006;2023-05-10T06:20:04;7.27;;;6.67;;
2558;SDS011;1289;53.488;10.006;2023-05-10T06:22:33;7.23;;;6.53;;
2558;SDS011;1289;53.488;10.006;2023-05-10T06:24:59;7.60;;;7.00;;
2558;SDS011;1289;53.488;10.006;2023-05-10T06:27:26;7.30;;;6.70;;
2558;SDS011;1289;53.488;10.006;2023-05-10T06:29:52;7.87;;;7.17;;
2558;SDS011;1289;53.488;10.006;2023-05-10T06:32:19;6.90;;;6.13;;
2558;SDS011;1289;53.488;10.006;2023-05-10T06:34:45;8.03;;;7.13;;
2558;SDS011;1289;53.488;10.006;2023-05-10T06:37:12;7.20;;;6.60;;
2558;SDS011;1289;53.488;10.006;2023-05-10T06:39:40;7.87;;;7.17;;
2558;SDS011;1289;53.488;10.006;2023-05-10T06:42:07;12.07;;;6.90;;
2558;SDS011;1289;53.488;10.006;2023-05-10T06:44:34;6.93;;;6.40;;
2558;SDS011;1289;53.488;10.006;2023-05-10T06:47:01;7.10;;;6.50;;
2558;SDS011;1289;53.488;10.006;2023-05-10T06:49:27;7.60;;;6.87;;
2558;SDS011;1289;53.488;10.006;2023-05-10T06:51:55;7.07;;;6.47;;
2558;SDS011;1289;53.488;10.006;2023-05-10T06:54:21;6.50;;;5.83;;
2558;SDS011;1289;53.488;10.006;2023-05-10T06:56:49;14.43;;;6.90;;
2558;SDS011;1289;53.488;10.006;2023-05-10T06:59:16;6.90;;;6.20;;
2558;SDS011;1289;53.488;10.006;2023-05-10T07:01:44;6.83;;;6.30;;
2558;SDS011;1289;53.488;10.006;2023-05-10T07:04:10;6.67;;;5.97;;
2558;SDS011;1289;53.488;10.006;2023-05-10T07:06:37;6.63;;;6.13;;
2558;SDS011;1289;53.488;10.006;2023-05-10T07:09:04;7.60;;;6.90;;
2558;SDS011;1289;53.488;10.006;2023-05-10T07:11:31;6.47;;;5.83;;
2558;SDS011;1289;53.488;10.006;2023-05-10T07:13:58;7.20;;;6.70;;
2558;SDS011;1289;53.488;10.006;2023-05-10T07:16:25;7.20;;;6.60;;
2558;SDS011;1289;53.488;10.006;2023-05-10T07:18:52;6.63;;;6.13;;
2558;SDS011;1289;53.488;10.006;2023-05-10T07:21:18;6.70;;;6.20;;
2558;SDS011;1289;53.488;10.006;2023-05-10T07:23:45;6.90;;;6.30;;
2558;SDS011;1289;53.488;10.006;2023-05-10T07:26:12;7.30;;;6.70;;
2558;SDS011;1289;53.488;10.006;2023-05-10T07:28:39;7.80;;;7.10;;
2558;SDS011;1289;53.488;10.006;2023-05-10T07:31:07;7.00;;;6.40;;
2558;SDS011;1289;53.488;10.006;2023-05-10T07:33:34;6.67;;;6.07;;
2558;SDS011;1289;53.488;10.006;2023-05-10T07:36:01;6.77;;;6.17;;
2558;SDS011;1289;53.488;10.006;2023-05-10T07:38:27;6.77;;;6.27;;
2558;SDS011;1289;53.488;10.006;2023-05-10T07:40:54;6.90;;;6.30;;
2558;SDS011;1289;53.488;10.006;2023-05-10T07:43:20;7.33;;;6.73;;
2558;SDS011;1289;53.488;10.006;2023-05-10T07:45:47;6.80;;;6.20;;
2558;SDS011;1289;53.488;10.006;2023-05-10T07:48:15;7.30;;;6.30;;
2558;SDS011;1289;53.488;10.006;2023-05-10T07:50:41;6.83;;;6.30;;
2558;SDS011;1289;53.488;10.006;2023-05-10T07:53:08;8.87;;;7.47;;
2558;SDS011;1289;53.488;10.006;2023-05-10T07:55:35;7.30;;;6.20;;
2558;SDS011;1289;53.488;10.006;2023-05-10T07:58:02;7.20;;;6.53;;
2558;SDS011;1289;53.488;10.006;2023-05-10T08:00:29;7.03;;;6.33;;
2558;SDS011;1289;53.488;10.006;2023-05-10T08:02:55;7.30;;;6.70;;
2558;SDS011;1289;53.488;10.006;2023-05-10T08:05:23;7.03;;;6.37;;
2558;SDS011;1289;53.488;10.006;2023-05-10T08:07:50;7.20;;;6.60;;
2558;SDS011;1289;53.488;10.006;2023-05-10T08:10:16;6.47;;;5.97;;
2558;SDS011;1289;53.488;10.006;2023-05-10T08:12:43;6.20;;;5.70;;
2558;SDS011;1289;53.488;10.006;2023-05-10T08:15:10;6.50;;;6.00;;
2558;SDS011;1289;53.488;10.006;2023-05-10T08:17:36;6.43;;;5.93;;
2558;SDS011;1289;53.488;10.006;2023-05-10T08:20:03;7.57;;;6.87;;
2558;SDS011;1289;53.488;10.006;2023-05-10T08:22:32;6.97;;;6.37;;
2558;SDS011;1289;53.488;10.006;2023-05-10T08:25:04;6.97;;;6.47;;
2558;SDS011;1289;53.488;10.006;2023-05-10T08:27:31;7.60;;;6.90;;
2558;SDS011;1289;53.488;10.006;2023-05-10T08:29:58;8.10;;;7.30;;
2558;SDS011;1289;53.488;10.006;2023-05-10T08:32:24;7.60;;;6.73;;
2558;SDS011;1289;53.488;10.006;2023-05-10T08:34:51;6.80;;;6.17;;
2558;SDS011;1289;53.488;10.006;2023-05-10T08:37:18;7.40;;;6.80;;
2558;SDS011;1289;53.488;10.006;2023-05-10T08:39:46;7.20;;;6.60;;
2558;SDS011;1289;53.488;10.006;2023-05-10T08:42:13;7.43;;;6.73;;
2558;SDS011;1289;53.488;10.006;2023-05-10T08:44:42;7.63;;;6.97;;
2558;SDS011;1289;53.488;10.006;2023-05-10T08:47:09;7.40;;;6.80;;
2558;SDS011;1289;53.488;10.006;2023-05-10T08:49:36;7.20;;;6.50;;
2558;SDS011;1289;53.488;10.006;2023-05-10T08:52:03;8.73;;;7.93;;
2558;SDS011;1289;53.488;10.006;2023-05-10T08:54:33;8.00;;;7.30;;
2558;SDS011;1289;53.488;10.006;2023-05-10T08:57:02;10.10;;;7.30;;
2558;SDS011;1289;53.488;10.006;2023-05-10T08:59:28;8.50;;;7.20;;
2558;SDS011;1289;53.488;10.006;2023-05-10T09:01:55;7.10;;;6.40;;
2558;SDS011;1289;53.488;10.006;2023-05-10T09:04:24;7.10;;;6.40;;
2558;SDS011;1289;53.488;10.006;2023-05-10T09:06:50;7.63;;;6.90;;
2558;SDS011;1289;53.488;10.006;2023-05-10T09:09:17;8.37;;;6.87;;
2558;SDS011;1289;53.488;10.006;2023-05-10T09:11:44;7.53;;;6.93;;
2558;SDS011;1289;53.488;10.006;2023-05-10T09:14:12;7.20;;;6.60;;
2558;SDS011;1289;53.488;10.006;2023-05-10T09:16:39;7.80;;;7.00;;
2558;SDS011;1289;53.488;10.006;2023-05-10T09:19:06;8.23;;;7.47;;
2558;SDS011;1289;53.488;10.006;2023-05-10T09:21:34;7.40;;;6.90;;
2558;SDS011;1289;53.488;10.006;2023-05-10T09:24:02;10.23;;;6.97;;
2558;SDS011;1289;53.488;10.006;2023-05-10T09:26:30;9.10;;;8.00;;
2558;SDS011;1289;53.488;10.006;2023-05-10T09:28:57;8.93;;;8.23;;
2558;SDS011;1289;53.488;10.006;2023-05-10T09:31:26;8.30;;;6.93;;
2558;SDS011;1289;53.488;10.006;2023-05-10T09:34:09;7.80;;;7.03;;
2558;SDS011;1289;53.488;10.006;2023-05-10T09:36:36;11.43;;;10.33;;
2558;SDS011;1289;53.488;10.006;2023-05-10T09:39:02;8.80;;;8.10;;
2558;SDS011;1289;53.488;10.006;2023-05-10T09:41:29;8.87;;;8.00;;
2558;SDS011;1289;53.488;10.006;2023-05-10T09:43:56;9.80;;;8.90;;
2558;SDS011;1289;53.488;10.006;2023-05-10T09:46:23;9.87;;;8.97;;
2558;SDS011;1289;53.488;10.006;2023-05-10T09:48:51;8.83;;;7.87;;
2558;SDS011;1289;53.488;10.006;2023-05-10T09:51:21;9.30;;;8.50;;
2558;SDS011;1289;53.488;10.006;2023-05-10T09:53:48;9.20;;;8.30;;
2558;SDS011;1289;53.488;10.006;2023-05-10T09:59:03;10.23;;;9.17;;
2558;SDS011;1289;53.488;10.006;2023-05-10T10:01:31;9.40;;;8.60;;
2558;SDS011;1289;53.488;10.006;2023-05-10T10:03:59;10.27;;;9.27;;
2558;SDS011;1289;53.488;10.006;2023-05-10T10:06:25;9.80;;;8.90;;
2558;SDS011;1289;53.488;10.006;2023-05-10T10:08:53;11.60;;;10.50;;
2558;SDS011;1289;53.488;10.006;2023-05-10T10:11:21;10.03;;;9.13;;
2558;SDS011;1289;53.488;10.006;2023-05-10T10:13:49;9.90;;;9.00;;
2558;SDS011;1289;53.488;10.006;2023-05-10T10:16:15;10.03;;;9.00;;
2558;SDS011;1289;53.488;10.006;2023-05-10T10:18:42;9.97;;;9.07;;
2558;SDS011;1289;53.488;10.006;2023-05-10T10:21:12;10.53;;;9.63;;
2558;SDS011;1289;53.488;10.006;2023-05-10T10:23:39;11.20;;;10.10;;
2558;SDS011;1289;53.488;10.006;2023-05-10T10:26:06;10.90;;;9.90;;
2558;SDS011;1289;53.488;10.006;2023-05-10T10:28:35;10.50;;;9.50;;
2558;SDS011;1289;53.488;10.006;2023-05-10T10:31:12;11.07;;;9.33;;
2558;SDS011;1289;53.488;10.006;2023-05-10T10:36:33;9.83;;;8.83;;
2558;SDS011;1289;53.488;10.006;2023-05-10T10:39:08;10.50;;;9.40;;
2558;SDS011;1289;53.488;10.006;2023-05-10T10:41:36;12.17;;;11.03;;
2558;SDS011;1289;53.488;10.006;2023-05-10T10:44:24;12.50;;;10.87;;
2558;SDS011;1289;53.488;10.006;2023-05-10T10:47:10;11.63;;;10.47;;
2558;SDS011;1289;53.488;10.006;2023-05-10T10:49:50;12.80;;;11.20;;
2558;SDS011;1289;53.488;10.006;2023-05-10T10:52:23;12.00;;;10.70;;
2558;SDS011;1289;53.488;10.006;2023-05-10T10:54:53;12.73;;;11.20;;
2558;SDS011;1289;53.488;10.006;2023-05-10T10:57:24;11.77;;;10.70;;
2558;SDS011;1289;53.488;10.006;2023-05-10T10:59:53;11.87;;;10.80;;
2558;SDS011;1289;53.488;10.006;2023-05-10T11:02:42;12.17;;;11.03;;
2558;SDS011;1289;53.488;10.006;2023-05-10T11:05:23;13.00;;;11.70;;
2558;SDS011;1289;53.488;10.006;2023-05-10T11:07:53;21.83;;;11.80;;
2558;SDS011;1289;53.488;10.006;2023-05-10T11:10:19;16.50;;;11.30;;
2558;SDS011;1289;53.488;10.006;2023-05-10T11:12:52;12.27;;;11.17;;
2558;SDS011;1289;53.488;10.006;2023-05-10T11:15:27;12.47;;;11.27;;
2558;SDS011;1289;53.488;10.006;2023-05-10T11:17:54;12.97;;;11.80;;
2558;SDS011;1289;53.488;10.006;2023-05-10T11:20:21;12.73;;;11.63;;
2558;SDS011;1289;53.488;10.006;2023-05-10T11:22:50;15.33;;;11.60;;
2558;SDS011;1289;53.488;10.006;2023-05-10T11:25:18;12.90;;;11.77;;
2558;SDS011;1289;53.488;10.006;2023-05-10T11:27:47;14.97;;;13.50;;
2558;SDS011;1289;53.488;10.006;2023-05-10T11:30:14;14.00;;;12.60;;
2558;SDS011;1289;53.488;10.006;2023-05-10T11:32:41;12.93;;;11.70;;
2558;SDS011;1289;53.488;10.006;2023-05-10T11:35:07;14.57;;;12.90;;
2558;SDS011;1289;53.488;10.006;2023-05-10T11:37:34;14.70;;;13.20;;
2558;SDS011;1289;53.488;10.006;2023-05-10T11:40:01;14.47;;;13.17;;
2558;SDS011;1289;53.488;10.006;2023-05-10T11:42:29;13.90;;;12.50;;
2558;SDS011;1289;53.488;10.006;2023-05-10T11:44:56;13.50;;;12.30;;
2558;SDS011;1289;53.488;10.006;2023-05-10T11:47:23;14.50;;;13.10;;
2558;SDS011;1289;53.488;10.006;2023-05-10T11:49:49;13.50;;;11.97;;
2558;SDS011;1289;53.488;10.006;2023-05-10T11:52:16;13.37;;;12.07;;
2558;SDS011;1289;53.488;10.006;2023-05-10T11:54:45;14.10;;;12.77;;
2558;SDS011;1289;53.488;10.006;2023-05-10T11:57:12;13.97;;;12.50;;
2558;SDS011;1289;53.488;10.006;2023-05-10T11:59:40;14.53;;;13.13;;
2558;SDS011;1289;53.488;10.006;2023-05-10T12:02:07;14.13;;;12.57;;
2558;SDS011;1289;53.488;10.006;2023-05-10T12:04:33;14.10;;;12.83;;
2558;SDS011;1289;53.488;10.006;2023-05-10T12:07:00;12.50;;;11.20;;
2558;SDS011;1289;53.488;10.006;2023-05-10T12:09:26;13.93;;;12.63;;
2558;SDS011;1289;53.488;10.006;2023-05-10T12:11:54;14.40;;;13.10;;
2558;SDS011;1289;53.488;10.006;2023-05-10T12:14:22;11.63;;;10.53;;
2558;SDS011;1289;53.488;10.006;2023-05-10T12:16:50;12.30;;;11.20;;
2558;SDS011;1289;53.488;10.006;2023-05-10T12:19:18;12.53;;;11.13;;
2558;SDS011;1289;53.488;10.006;2023-05-10T12:21:45;11.70;;;10.60;;
2558;SDS011;1289;53.488;10.006;2023-05-10T12:24:12;12.47;;;11.27;;
2558;SDS011;1289;53.488;10.006;2023-05-10T12:26:41;10.53;;;9.63;;
2558;SDS011;1289;53.488;10.006;2023-05-10T12:29:11;11.23;;;10.13;;
2558;SDS011;1289;53.488;10.006;2023-05-10T12:31:48;11.87;;;10.73;;
2558;SDS011;1289;53.488;10.006;2023-05-10T12:34:22;10.73;;;9.67;;
2558;SDS011;1289;53.488;10.006;2023-05-10T12:36:50;10.57;;;9.53;;
2558;SDS011;1289;53.488;10.006;2023-05-10T12:39:17;11.70;;;10.50;;
2558;SDS011;1289;53.488;10.006;2023-05-10T12:41:43;10.47;;;9.57;;
2558;SDS011;1289;53.488;10.006;2023-05-10T12:44:10;10.90;;;9.80;;
2558;SDS011;1289;53.488;10.006;2023-05-10T12:46:37;9.67;;;8.77;;
2558;SDS011;1289;53.488;10.006;2023-05-10T12:49:04;12.23;;;9.23;;
2558;SDS011;1289;53.488;10.006;2023-05-10T12:51:31;8.70;;;8.00;;
2558;SDS011;1289;53.488;10.006;2023-05-10T12:53:58;8.67;;;7.80;;
2558;SDS011;1289;53.488;10.006;2023-05-10T12:56:24;8.70;;;7.93;;
2558;SDS011;1289;53.488;10.006;2023-05-10T12:58:51;8.47;;;7.77;;
2558;SDS011;1289;53.488;10.006;2023-05-10T13:01:17;8.93;;;8.23;;
2558;SDS011;1289;53.488;10.006;2023-05-10T13:03:44;8.90;;;8.10;;
2558;SDS011;1289;53.488;10.006;2023-05-10T13:06:12;9.30;;;8.50;;
2558;SDS011;1289;53.488;10.006;2023-05-10T13:08:39;9.90;;;9.00;;
2558;SDS011;1289;53.488;10.006;2023-05-10T13:11:06;10.50;;;9.50;;
2558;SDS011;1289;53.488;10.006;2023-05-10T13:13:33;8.90;;;8.10;;
2558;SDS011;1289;53.488;10.006;2023-05-10T13:15:59;8.90;;;8.10;;
2558;SDS011;1289;53.488;10.006;2023-05-10T13:18:26;8.03;;;7.33;;
2558;SDS011;1289;53.488;10.006;2023-05-10T13:23:21;9.43;;;8.50;;
2558;SDS011;1289;53.488;10.006;2023-05-10T13:25:47;9.20;;;8.40;;
2558;SDS011;1289;53.488;10.006;2023-05-10T13:28:14;10.27;;;9.23;;
2558;SDS011;1289;53.488;10.006;2023-05-10T13:30:40;10.17;;;9.27;;
2558;SDS011;1289;53.488;10.006;2023-05-10T13:33:07;9.60;;;8.70;;
2558;SDS011;1289;53.488;10.006;2023-05-10T13:35:34;9.20;;;8.50;;
2558;SDS011;1289;53.488;10.006;2023-05-10T13:38:00;8.77;;;7.97;;
2558;SDS011;1289;53.488;10.006;2023-05-10T13:40:28;9.67;;;8.90;;
2558;SDS011;1289;53.488;10.006;2023-05-10T13:42:55;8.97;;;8.17;;
2558;SDS011;1289;53.488;10.006;2023-05-10T13:45:22;9.37;;;8.57;;
2558;SDS011;1289;53.488;10.006;2023-05-10T13:47:48;9.63;;;8.60;;
2558;SDS011;1289;53.488;10.006;2023-05-10T13:50:15;8.73;;;8.03;;
2558;SDS011;1289;53.488;10.006;2023-05-10T13:52:41;11.70;;;9.47;;
2558;SDS011;1289;53.488;10.006;2023-05-10T13:55:08;10.60;;;9.60;;
2558;SDS011;1289;53.488;10.006;2023-05-10T13:57:39;8.70;;;7.90;;
2558;SDS011;1289;53.488;10.006;2023-05-10T14:00:06;8.67;;;7.97;;
2558;SDS011;1289;53.488;10.006;2023-05-10T14:02:33;9.00;;;7.80;;
2558;SDS011;1289;53.488;10.006;2023-05-10T14:05:00;9.20;;;8.40;;
2558;SDS011;1289;53.488;10.006;2023-05-10T14:07:26;8.60;;;7.80;;
2558;SDS011;1289;53.488;10.006;2023-05-10T14:09:53;9.97;;;9.10;;
2558;SDS011;1289;53.488;10.006;2023-05-10T14:12:20;9.67;;;8.87;;
2558;SDS011;1289;53.488;10.006;2023-05-10T14:14:48;10.37;;;9.37;;
2558;SDS011;1289;53.488;10.006;2023-05-10T14:17:14;9.50;;;8.60;;
2558;SDS011;1289;53.488;10.006;2023-05-10T14:19:41;10.00;;;9.17;;
2558;SDS011;1289;53.488;10.006;2023-05-10T14:22:07;9.60;;;8.77;;
2558;SDS011;1289;53.488;10.006;2023-05-10T14:24:34;9.53;;;8.73;;
2558;SDS011;1289;53.488;10.006;2023-05-10T14:27:04;10.20;;;9.30;;
2558;SDS011;1289;53.488;10.006;2023-05-10T14:29:31;9.20;;;8.40;;
2558;SDS011;1289;53.488;10.006;2023-05-10T14:31:59;10.10;;;9.20;;
2558;SDS011;1289;53.488;10.006;2023-05-10T14:34:26;10.60;;;8.63;;
2558;SDS011;1289;53.488;10.006;2023-05-10T14:36:52;9.27;;;8.43;;
2558;SDS011;1289;53.488;10.006;2023-05-10T14:39:20;8.70;;;8.00;;
2558;SDS011;1289;53.488;10.006;2023-05-10T14:41:47;8.30;;;7.60;;
2558;SDS011;1289;53.488;10.006;2023-05-10T14:44:14;10.23;;;8.57;;
2558;SDS011;1289;53.488;10.006;2023-05-10T14:46:41;9.00;;;8.27;;
2558;SDS011;1289;53.488;10.006;2023-05-10T14:49:09;10.20;;;8.60;;
2558;SDS011;1289;53.488;10.006;2023-05-10T14:51:35;10.07;;;9.17;;
2558;SDS011;1289;53.488;10.006;2023-05-10T14:54:02;9.40;;;8.60;;
2558;SDS011;1289;53.488;10.006;2023-05-10T14:56:29;10.17;;;9.27;;
2558;SDS011;1289;53.488;10.006;2023-05-10T14:58:55;8.80;;;8.00;;
2558;SDS011;1289;53.488;10.006;2023-05-10T15:01:22;9.70;;;8.90;;
2558;SDS011;1289;53.488;10.006;2023-05-10T15:03:49;8.60;;;7.90;;
2558;SDS011;1289;53.488;10.006;2023-05-10T15:06:17;9.43;;;8.33;;
2558;SDS011;1289;53.488;10.006;2023-05-10T15:08:49;9.97;;;9.17;;
2558;SDS011;1289;53.488;10.006;2023-05-10T15:11:16;9.13;;;8.33;;